createdAt,value
2023-03-29T00:01:35.547Z,11.15
2023-03-29T00:04:06.417Z,9.45
2023-03-29T00:06:35.714Z,9.27
2023-03-29T00:09:05.895Z,8.48
2023-03-29T00:11:34.049Z,10.52
2023-03-29T00:14:02.582Z,9.45
2023-03-29T00:16:33.030Z,10.10
2023-03-29T00:19:02.453Z,7.72
2023-03-29T00:21:31.847Z,6.00
2023-03-29T00:23:59.893Z,7.72
2023-03-29T00:26:28.006Z,10.07
2023-03-29T00:28:56.392Z,7.60
2023-03-29T00:31:24.519Z,6.70
2023-03-29T00:33:53.624Z,7.28
2023-03-29T00:36:22.359Z,7.78
2023-03-29T00:38:50.526Z,7.07
2023-03-29T00:41:18.708Z,7.38
2023-03-29T00:43:57.761Z,8.20
2023-03-29T00:46:27.598Z,5.88
2023-03-29T00:49:03.997Z,6.25
2023-03-29T00:51:37.515Z,8.63
2023-03-29T00:54:16.277Z,9.10
2023-03-29T00:56:47.218Z,6.40
2023-03-29T00:59:28.383Z,9.07
2023-03-29T01:02:03.553Z,10.95
2023-03-29T01:04:43.249Z,7.47
2023-03-29T01:07:40.086Z,6.85
2023-03-29T01:10:26.836Z,8.70
2023-03-29T01:13:04.306Z,10.52
2023-03-29T01:15:34.461Z,14.13
2023-03-29T01:18:02.771Z,9.00
2023-03-29T01:20:49.264Z,6.10
2023-03-29T01:23:38.952Z,9.43
2023-03-29T01:26:29.759Z,7.13
2023-03-29T01:29:26.250Z,7.15
2023-03-29T01:32:36.948Z,5.82
2023-03-29T01:35:11.470Z,7.28
2023-03-29T01:37:49.745Z,8.27
2023-03-29T01:40:18.443Z,6.78
2023-03-29T01:42:53.054Z,6.20
2023-03-29T01:45:31.676Z,8.27
2023-03-29T01:48:13.909Z,8.10
2023-03-29T01:51:00.077Z,8.80
2023-03-29T01:53:39.555Z,6.50
2023-03-29T01:56:13.861Z,8.27
2023-03-29T01:58:46.701Z,8.65
2023-03-29T02:01:23.289Z,8.45
2023-03-29T02:03:59.367Z,7.18
2023-03-29T02:06:30.828Z,10.93
2023-03-29T02:09:05.019Z,10.10
2023-03-29T02:11:35.132Z,6.68
2023-03-29T02:14:03.905Z,6.82
2023-03-29T02:16:41.046Z,7.93
2023-03-29T02:19:10.888Z,7.00
2023-03-29T02:21:51.985Z,6.75
2023-03-29T02:24:22.305Z,7.03
2023-03-29T02:26:51.107Z,5.10
2023-03-29T02:29:19.589Z,6.32
2023-03-29T02:31:55.791Z,6.88
2023-03-29T02:34:31.424Z,5.82
2023-03-29T02:37:13.079Z,8.48
2023-03-29T02:39:43.006Z,8.07
2023-03-29T02:42:11.501Z,6.53
2023-03-29T02:44:45.552Z,6.85
2023-03-29T02:47:33.809Z,7.65
2023-03-29T02:50:03.151Z,9.52
2023-03-29T02:52:37.582Z,9.45
2023-03-29T02:57:39.980Z,7.00
2023-03-29T03:00:10.335Z,4.70
2023-03-29T03:02:38.991Z,5.95
2023-03-29T03:05:09.678Z,5.43
2023-03-29T03:07:40.821Z,4.80
2023-03-29T03:10:11.281Z,5.53
2023-03-29T03:12:41.612Z,9.25
2023-03-29T03:15:10.677Z,5.90
2023-03-29T03:17:41.183Z,7.50
2023-03-29T03:20:15.049Z,8.02
2023-03-29T03:22:49.314Z,9.00
2023-03-29T03:25:22.125Z,6.15
2023-03-29T03:30:22.754Z,4.78
2023-03-29T03:33:03.351Z,5.63
2023-03-29T03:35:50.336Z,6.30
2023-03-29T03:38:19.877Z,5.07
2023-03-29T03:40:58.887Z,5.40
2023-03-29T03:43:28.377Z,6.55
2023-03-29T03:45:57.802Z,5.90
2023-03-29T03:48:28.130Z,5.88
2023-03-29T03:51:10.381Z,7.75
2023-03-29T03:53:38.624Z,7.43
2023-03-29T03:56:29.990Z,7.75
2023-03-29T03:58:59.106Z,6.72
2023-03-29T04:01:28.706Z,8.20
2023-03-29T04:04:07.381Z,5.07
2023-03-29T04:06:35.517Z,5.13
2023-03-29T04:09:23.463Z,8.30
2023-03-29T04:12:05.651Z,8.88
2023-03-29T04:14:35.810Z,5.88
2023-03-29T04:17:09.916Z,8.30
2023-03-29T04:20:15.162Z,6.22
2023-03-29T04:22:43.853Z,7.00
2023-03-29T04:25:12.026Z,11.25
2023-03-29T04:27:51.482Z,7.60
2023-03-29T04:30:37.181Z,7.20
2023-03-29T04:33:22.006Z,6.20
2023-03-29T04:35:59.955Z,6.72
2023-03-29T04:38:29.225Z,5.63
2023-03-29T04:41:01.413Z,5.70
2023-03-29T04:43:46.916Z,9.88
2023-03-29T04:46:30.153Z,7.78
2023-03-29T04:49:17.388Z,6.00
2023-03-29T04:51:50.380Z,7.30
2023-03-29T04:54:22.517Z,7.95
2023-03-29T04:57:20.746Z,7.63
2023-03-29T05:00:15.313Z,6.43
2023-03-29T05:03:07.894Z,7.50
2023-03-29T05:05:42.049Z,9.93
2023-03-29T05:08:10.890Z,9.40
2023-03-29T05:10:53.595Z,10.30
2023-03-29T05:13:21.876Z,8.73
2023-03-29T05:15:50.650Z,8.27
2023-03-29T05:18:20.018Z,9.07
2023-03-29T05:20:48.790Z,7.32
2023-03-29T05:23:20.730Z,11.93
2023-03-29T05:26:15.097Z,8.65
2023-03-29T05:28:49.369Z,6.97
2023-03-29T05:31:19.494Z,9.52
2023-03-29T05:33:52.231Z,8.90
2023-03-29T05:36:21.881Z,8.93
2023-03-29T05:38:51.902Z,8.35
2023-03-29T05:41:27.014Z,9.32
2023-03-29T05:44:24.238Z,8.63
2023-03-29T05:46:58.235Z,6.95
2023-03-29T05:49:27.538Z,9.13
2023-03-29T05:52:11.053Z,7.78
2023-03-29T05:54:41.555Z,9.15
2023-03-29T05:57:10.891Z,7.65
2023-03-29T05:59:40.043Z,9.77
2023-03-29T06:02:10.056Z,10.13
2023-03-29T06:04:42.454Z,12.90
2023-03-29T06:07:26.099Z,9.43
2023-03-29T06:10:21.172Z,9.48
2023-03-29T06:12:56.735Z,8.68
2023-03-29T06:15:26.438Z,7.15
2023-03-29T06:18:03.877Z,6.43
2023-03-29T06:20:33.165Z,6.72
2023-03-29T06:23:08.888Z,6.82
2023-03-29T06:25:37.072Z,7.20
2023-03-29T06:28:07.628Z,7.45
2023-03-29T06:30:37.137Z,7.32
2023-03-29T06:33:07.306Z,7.85
2023-03-29T06:35:56.802Z,8.48
2023-03-29T06:38:29.198Z,6.50
2023-03-29T06:41:29.831Z,6.40
2023-03-29T06:44:07.206Z,9.10
2023-03-29T06:46:41.037Z,9.93
2023-03-29T06:49:11.845Z,41.05
2023-03-29T06:51:55.338Z,13.05
2023-03-29T06:54:24.732Z,19.80
2023-03-29T06:57:05.283Z,13.02
2023-03-29T06:59:35.863Z,9.25
2023-03-29T07:02:34.744Z,13.45
2023-03-29T07:05:13.709Z,7.68
2023-03-29T07:08:05.694Z,11.63
2023-03-29T07:11:01.503Z,10.30
2023-03-29T07:14:03.356Z,9.20
2023-03-29T07:16:32.775Z,10.20
2023-03-29T07:19:22.976Z,10.65
2023-03-29T07:21:54.225Z,12.00
2023-03-29T07:24:28.549Z,17.75
2023-03-29T07:27:04.253Z,13.52
2023-03-29T07:29:34.298Z,19.08
2023-03-29T07:32:02.481Z,30.92
2023-03-29T07:35:05.432Z,23.88
2023-03-29T07:37:37.615Z,17.85
2023-03-29T07:40:16.576Z,20.63
2023-03-29T07:43:09.172Z,19.30
2023-03-29T07:45:42.428Z,17.00
2023-03-29T07:48:13.513Z,17.05
2023-03-29T07:50:54.632Z,11.93
2023-03-29T07:53:29.836Z,15.82
2023-03-29T07:56:00.827Z,14.82
2023-03-29T07:58:55.303Z,15.40
2023-03-29T08:01:24.999Z,14.60
2023-03-29T08:04:00.093Z,11.75
2023-03-29T08:06:49.175Z,9.80
2023-03-29T08:09:17.826Z,7.93
2023-03-29T08:11:46.791Z,6.85
2023-03-29T08:14:26.667Z,7.43
2023-03-29T08:17:07.287Z,7.53
2023-03-29T08:19:41.958Z,5.75
2023-03-29T08:22:22.764Z,8.02
2023-03-29T08:25:22.049Z,4.93
2023-03-29T08:27:54.302Z,5.18
2023-03-29T08:30:32.553Z,7.47
2023-03-29T08:33:03.163Z,6.75
2023-03-29T08:35:31.935Z,7.63
2023-03-29T08:38:22.824Z,5.72
2023-03-29T08:40:52.192Z,5.70
2023-03-29T08:43:55.023Z,5.10
2023-03-29T08:47:01.103Z,4.82
2023-03-29T08:49:38.911Z,3.72
2023-03-29T08:54:49.200Z,4.32
2023-03-29T08:57:33.923Z,4.90
2023-03-29T09:00:10.763Z,5.05
2023-03-29T09:02:44.364Z,4.57
2023-03-29T09:05:28.297Z,4.53
2023-03-29T09:08:19.725Z,5.15
2023-03-29T09:11:09.119Z,7.45
2023-03-29T09:13:49.757Z,4.82
2023-03-29T09:16:38.341Z,6.97
2023-03-29T09:19:12.786Z,6.18
2023-03-29T09:21:51.826Z,6.82
2023-03-29T09:24:37.674Z,7.45
2023-03-29T09:27:37.996Z,6.60
2023-03-29T09:30:41.916Z,9.75
2023-03-29T09:33:46.941Z,5.15
2023-03-29T09:36:51.485Z,6.57
2023-03-29T09:39:22.352Z,7.70
2023-03-29T09:42:12.278Z,7.63
2023-03-29T09:44:47.290Z,6.50
2023-03-29T09:47:38.248Z,7.25
2023-03-29T09:50:32.027Z,5.60
2023-03-29T09:53:05.891Z,7.65
2023-03-29T09:55:40.950Z,9.93
2023-03-29T09:58:34.397Z,7.55
2023-03-29T10:01:09.643Z,6.20
2023-03-29T10:03:41.332Z,6.63
2023-03-29T10:06:15.071Z,8.00
2023-03-29T10:11:23.693Z,4.00
2023-03-29T10:13:57.003Z,5.00
2023-03-29T10:16:31.167Z,5.40
2023-03-29T10:19:19.012Z,4.72
2023-03-29T10:21:50.170Z,6.93
2023-03-29T10:24:21.185Z,5.93
2023-03-29T10:26:55.913Z,7.07
2023-03-29T10:29:26.512Z,6.43
2023-03-29T10:31:55.769Z,7.93
2023-03-29T10:34:28.331Z,6.50
2023-03-29T10:36:59.985Z,6.53
2023-03-29T10:39:31.959Z,6.85
2023-03-29T10:42:03.663Z,4.68
2023-03-29T10:44:35.121Z,7.80
2023-03-29T10:47:19.634Z,6.13
2023-03-29T10:50:10.064Z,6.25
2023-03-29T10:52:41.266Z,6.82
2023-03-29T10:55:14.234Z,5.10
2023-03-29T10:58:00.828Z,4.90
2023-03-29T11:00:51.250Z,7.13
2023-03-29T11:03:26.834Z,4.82
2023-03-29T11:06:08.424Z,6.45
2023-03-29T11:08:59.781Z,6.70
2023-03-29T11:11:36.915Z,14.38
2023-03-29T11:14:14.725Z,8.10
2023-03-29T11:17:07.707Z,5.47
2023-03-29T11:20:00.273Z,4.10
2023-03-29T11:22:48.943Z,8.02
2023-03-29T11:25:32.922Z,7.68
2023-03-29T11:28:39.122Z,16.25
2023-03-29T11:31:38.763Z,4.15
2023-03-29T11:34:27.179Z,5.82
2023-03-29T11:36:59.866Z,5.50
2023-03-29T11:39:41.850Z,5.78
2023-03-29T11:42:18.982Z,9.07
2023-03-29T11:44:53.456Z,6.30
2023-03-29T11:47:35.211Z,9.18
2023-03-29T11:50:22.045Z,8.77
2023-03-29T11:52:55.701Z,6.95
2023-03-29T11:55:40.074Z,6.45
2023-03-29T11:58:20.208Z,7.80
2023-03-29T12:01:40.126Z,6.55
2023-03-29T12:04:30.620Z,6.30
2023-03-29T12:07:11.009Z,7.00
2023-03-29T12:09:50.373Z,5.63
2023-03-29T12:12:23.742Z,7.43
2023-03-29T12:15:17.492Z,4.55
2023-03-29T12:18:16.645Z,10.25
2023-03-29T12:20:52.876Z,6.13
2023-03-29T12:23:22.731Z,4.25
2023-03-29T12:26:07.282Z,4.80
2023-03-29T12:28:50.435Z,3.65
2023-03-29T12:31:29.185Z,4.65
2023-03-29T12:34:54.925Z,6.78
2023-03-29T12:38:00.048Z,5.80
2023-03-29T12:40:54.114Z,8.13
2023-03-29T12:43:43.649Z,5.10
2023-03-29T12:46:35.811Z,7.93
2023-03-29T12:49:29.820Z,6.60
2023-03-29T12:51:59.785Z,5.85
2023-03-29T12:54:33.689Z,4.70
2023-03-29T12:57:28.365Z,7.78
2023-03-29T12:59:57.224Z,6.35
2023-03-29T13:02:28.023Z,3.92
2023-03-29T13:04:58.198Z,3.60
2023-03-29T13:07:29.053Z,6.30
2023-03-29T13:09:59.916Z,4.60
2023-03-29T13:12:47.628Z,4.30
2023-03-29T13:15:19.019Z,8.25
2023-03-29T13:17:50.805Z,4.95
2023-03-29T13:20:40.255Z,12.75
2023-03-29T13:23:24.491Z,8.32
2023-03-29T13:25:59.201Z,7.88
2023-03-29T13:28:48.225Z,4.68
2023-03-29T13:31:42.300Z,5.80
2023-03-29T13:34:22.180Z,3.55
2023-03-29T13:37:22.111Z,3.90
2023-03-29T13:39:54.307Z,4.78
2023-03-29T13:42:36.594Z,5.22
2023-03-29T13:45:30.238Z,5.83
2023-03-29T13:48:23.756Z,4.90
2023-03-29T13:53:34.557Z,7.82
2023-03-29T13:56:04.013Z,5.18
2023-03-29T13:58:52.531Z,3.92
2023-03-29T14:01:43.380Z,5.63
2023-03-29T14:04:17.411Z,6.07
2023-03-29T14:06:53.254Z,6.75
2023-03-29T14:09:28.587Z,9.38
2023-03-29T14:12:01.319Z,4.38
2023-03-29T14:14:33.050Z,6.20
2023-03-29T14:17:02.139Z,6.22
2023-03-29T14:19:37.000Z,6.72
2023-03-29T14:22:14.118Z,4.97
2023-03-29T14:24:49.346Z,5.05
2023-03-29T14:27:19.608Z,14.57
2023-03-29T14:29:50.077Z,7.65
2023-03-29T14:32:27.671Z,4.85
2023-03-29T14:34:56.846Z,6.07
2023-03-29T14:37:29.294Z,6.18
2023-03-29T14:39:59.639Z,7.43
2023-03-29T14:42:29.322Z,7.30
2023-03-29T14:45:04.539Z,7.82
2023-03-29T14:47:34.455Z,9.63
2023-03-29T14:50:04.125Z,6.55
2023-03-29T14:52:32.793Z,5.47
2023-03-29T14:55:04.386Z,5.00
2023-03-29T14:57:36.516Z,7.00
2023-03-29T15:00:36.456Z,6.88
2023-03-29T15:03:13.303Z,7.10
2023-03-29T15:05:47.368Z,6.15
2023-03-29T15:08:20.171Z,5.35
2023-03-29T15:10:49.485Z,13.18
2023-03-29T15:13:24.761Z,9.70
2023-03-29T15:15:57.313Z,4.15
2023-03-29T15:18:40.147Z,6.60
2023-03-29T15:21:11.391Z,5.57
2023-03-29T15:23:59.339Z,18.98
2023-03-29T15:26:39.012Z,5.78
2023-03-29T15:29:13.714Z,5.57
2023-03-29T15:31:42.808Z,7.18
2023-03-29T15:34:25.526Z,7.85
2023-03-29T15:36:54.489Z,5.28
2023-03-29T15:39:23.134Z,5.90
2023-03-29T15:41:53.582Z,5.22
2023-03-29T15:44:29.130Z,4.70
2023-03-29T15:46:58.606Z,7.28
2023-03-29T15:49:27.590Z,8.68
2023-03-29T15:51:55.745Z,6.03
2023-03-29T15:54:24.947Z,8.30
2023-03-29T15:57:02.138Z,10.85
2023-03-29T15:59:31.953Z,10.95
2023-03-29T16:02:01.469Z,5.85
2023-03-29T16:04:30.170Z,10.82
2023-03-29T16:06:58.508Z,4.53
2023-03-29T16:09:27.478Z,8.52
2023-03-29T16:11:56.361Z,11.07
2023-03-29T16:14:27.508Z,7.68
2023-03-29T16:16:59.457Z,6.28
2023-03-29T16:19:30.034Z,6.18
2023-03-29T16:22:01.409Z,11.95
2023-03-29T16:24:33.685Z,8.05
2023-03-29T16:27:03.383Z,10.02
2023-03-29T16:29:32.116Z,8.38
2023-03-29T16:32:01.097Z,5.68
2023-03-29T16:34:30.228Z,7.60
2023-03-29T16:36:59.613Z,5.88
2023-03-29T16:39:28.896Z,5.97
2023-03-29T16:41:57.922Z,5.53
2023-03-29T16:44:28.221Z,5.93
2023-03-29T16:46:58.755Z,5.30
2023-03-29T16:49:28.703Z,5.18
2023-03-29T16:51:57.391Z,5.68
2023-03-29T16:54:29.885Z,5.68
2023-03-29T16:56:58.405Z,9.40
2023-03-29T16:59:27.248Z,10.25
2023-03-29T17:01:55.373Z,11.07
2023-03-29T17:04:24.569Z,20.20
2023-03-29T17:06:53.706Z,5.82
2023-03-29T17:09:22.408Z,7.00
2023-03-29T17:11:51.066Z,8.68
2023-03-29T17:14:20.096Z,7.57
2023-03-29T17:16:48.412Z,19.48
2023-03-29T17:19:17.445Z,6.97
2023-03-29T17:21:46.464Z,9.85
2023-03-29T17:24:14.615Z,6.25
2023-03-29T17:26:45.670Z,6.82
2023-03-29T17:29:14.071Z,9.55
2023-03-29T17:31:51.259Z,5.70
2023-03-29T17:34:20.062Z,8.38
2023-03-29T17:36:49.211Z,5.47
2023-03-29T17:39:18.866Z,5.72
2023-03-29T17:41:48.637Z,9.57
2023-03-29T17:44:16.976Z,7.32
2023-03-29T17:46:45.535Z,12.13
2023-03-29T17:49:15.003Z,6.63
2023-03-29T17:51:43.490Z,8.95
2023-03-29T17:54:12.382Z,8.40
2023-03-29T17:56:41.132Z,13.40
2023-03-29T17:59:09.898Z,8.98
2023-03-29T18:01:39.464Z,10.02
2023-03-29T18:04:08.970Z,11.15
2023-03-29T18:06:37.236Z,12.52
2023-03-29T18:09:05.757Z,8.32
2023-03-29T18:11:34.292Z,9.43
2023-03-29T18:14:04.959Z,12.25
2023-03-29T18:16:33.642Z,12.73
2023-03-29T18:19:02.165Z,15.18
2023-03-29T18:21:30.962Z,10.70
2023-03-29T18:23:59.968Z,11.55
2023-03-29T18:26:29.980Z,12.23
2023-03-29T18:28:58.257Z,9.05
2023-03-29T18:31:28.245Z,8.90
2023-03-29T18:33:57.203Z,13.57
2023-03-29T18:36:26.305Z,10.68
2023-03-29T18:38:56.001Z,9.45
2023-03-29T18:41:25.227Z,11.68
2023-03-29T18:43:57.430Z,7.68
2023-03-29T18:46:30.393Z,15.65
2023-03-29T18:49:01.780Z,15.70
2023-03-29T18:51:31.240Z,12.75
2023-03-29T18:54:00.724Z,15.73
2023-03-29T18:56:29.062Z,17.05
2023-03-29T18:58:57.263Z,13.10
2023-03-29T19:01:26.029Z,11.32
2023-03-29T19:03:54.446Z,9.70
2023-03-29T19:06:23.089Z,8.88
2023-03-29T19:08:54.131Z,11.70
2023-03-29T19:11:23.140Z,14.32
2023-03-29T19:13:52.723Z,9.35
2023-03-29T19:16:21.119Z,9.38
2023-03-29T19:18:49.398Z,12.85
2023-03-29T19:21:18.096Z,8.43
2023-03-29T19:24:06.670Z,8.18
2023-03-29T19:26:34.851Z,7.20
2023-03-29T19:29:03.536Z,8.07
2023-03-29T19:31:33.696Z,8.10
2023-03-29T19:34:02.354Z,12.55
2023-03-29T19:36:30.562Z,9.73
2023-03-29T19:38:59.712Z,9.57
2023-03-29T19:41:28.601Z,14.20
2023-03-29T19:43:56.655Z,18.60
2023-03-29T19:46:27.903Z,23.33
2023-03-29T19:48:56.340Z,18.33
2023-03-29T19:51:27.225Z,19.00
2023-03-29T19:53:56.626Z,22.77
2023-03-29T19:56:26.077Z,19.70
2023-03-29T19:58:55.169Z,29.02
2023-03-29T20:01:27.411Z,67.03
2023-03-29T20:03:56.402Z,23.60
2023-03-29T20:06:25.353Z,20.73
2023-03-29T20:08:55.000Z,16.10
2023-03-29T20:11:24.497Z,17.17
2023-03-29T20:13:53.486Z,14.23
2023-03-29T20:16:24.499Z,25.40
2023-03-29T20:18:54.164Z,20.08
2023-03-29T20:21:22.299Z,22.75
2023-03-29T20:23:51.272Z,30.33
2023-03-29T20:26:19.453Z,34.00
2023-03-29T20:28:47.870Z,30.50
2023-03-29T20:31:16.655Z,34.95
2023-03-29T20:33:45.624Z,31.20
2023-03-29T20:36:18.852Z,30.98
2023-03-29T20:38:47.629Z,23.38
2023-03-29T20:41:16.604Z,18.83
2023-03-29T20:43:48.212Z,21.27
2023-03-29T20:46:24.139Z,23.17
2023-03-29T20:48:56.181Z,14.45
2023-03-29T20:51:32.085Z,15.98
2023-03-29T20:54:05.009Z,16.10
2023-03-29T20:56:39.132Z,16.30
2023-03-29T20:59:12.383Z,15.45
2023-03-29T21:01:41.011Z,15.75
2023-03-29T21:04:35.345Z,16.92
2023-03-29T21:07:06.574Z,20.48
2023-03-29T21:09:36.792Z,21.05
2023-03-29T21:12:29.979Z,19.42
2023-03-29T21:14:58.690Z,15.25
2023-03-29T21:17:27.890Z,10.50
2023-03-29T21:19:56.312Z,15.82
2023-03-29T21:22:25.899Z,16.25
2023-03-29T21:24:54.476Z,14.68
2023-03-29T21:27:22.605Z,15.38
2023-03-29T21:29:51.556Z,15.90
2023-03-29T21:32:21.371Z,21.48
2023-03-29T21:34:50.226Z,25.35
2023-03-29T21:37:18.679Z,28.27
2023-03-29T21:39:47.541Z,29.48
2023-03-29T21:42:16.518Z,33.40
2023-03-29T21:44:45.109Z,21.58
2023-03-29T21:47:13.381Z,24.60
2023-03-29T21:49:42.283Z,14.57
2023-03-29T21:52:11.035Z,17.98
2023-03-29T21:54:39.274Z,20.95
2023-03-29T21:57:07.940Z,16.80
2023-03-29T21:59:36.321Z,17.50
2023-03-29T22:02:05.355Z,17.17
2023-03-29T22:04:37.203Z,15.27
2023-03-29T22:07:06.672Z,16.50
2023-03-29T22:09:35.510Z,15.55
2023-03-29T22:12:05.666Z,21.15
2023-03-29T22:14:36.987Z,16.65
2023-03-29T22:17:07.149Z,16.40
2023-03-29T22:19:39.536Z,13.60
2023-03-29T22:22:13.742Z,12.93
2023-03-29T22:24:42.772Z,14.65
2023-03-29T22:27:12.002Z,13.20
2023-03-29T22:29:40.063Z,17.08
2023-03-29T22:32:08.151Z,12.50
2023-03-29T22:34:36.489Z,15.20
2023-03-29T22:37:05.735Z,12.07
2023-03-29T22:39:37.193Z,13.68
2023-03-29T22:42:05.412Z,11.63
2023-03-29T22:44:34.189Z,12.82
2023-03-29T22:47:02.398Z,13.10
2023-03-29T22:49:30.833Z,12.05
2023-03-29T22:51:59.872Z,15.90
2023-03-29T22:54:29.326Z,15.35
2023-03-29T22:56:58.421Z,12.82
2023-03-29T22:59:27.459Z,14.38
2023-03-29T23:01:56.083Z,12.75
2023-03-29T23:04:24.337Z,9.68
2023-03-29T23:06:53.237Z,9.98
2023-03-29T23:09:22.862Z,11.98
2023-03-29T23:11:51.576Z,13.02
2023-03-29T23:14:20.314Z,12.38
2023-03-29T23:16:48.346Z,11.57
2023-03-29T23:19:16.600Z,10.63
2023-03-29T23:21:44.954Z,15.75
2023-03-29T23:24:13.625Z,12.88
2023-03-29T23:26:41.684Z,13.00
2023-03-29T23:29:09.788Z,11.15
2023-03-29T23:31:38.315Z,12.57
2023-03-29T23:34:06.446Z,11.10
2023-03-29T23:36:35.799Z,13.10
2023-03-29T23:39:07.243Z,13.02
2023-03-29T23:41:36.422Z,11.82
2023-03-29T23:44:05.463Z,9.23
2023-03-29T23:46:34.799Z,13.40
2023-03-29T23:49:03.663Z,13.25
2023-03-29T23:51:35.100Z,10.85
2023-03-29T23:54:03.467Z,14.40
2023-03-29T23:56:31.576Z,13.98
2023-03-29T23:59:00.069Z,10.93
